LatviaFixed distance
Cesis Eco Trail
6 Aug2016
Distance
81km
Finishers
11588 men27 women
Winning time
6:11:06h
Median pace
8.04km/h
Pace distribution
115 finishers · 5.77–13.10 km/h · mean 8.19
Every finisher ran the same 81 km course, so these paces are directly comparable.
Histogram of finisher pace. 115 finishers ranged from 5.77 to 13.10 kilometres per hour, with a mean of 8.19 and a median of 8.04. The busiest band is 7.5 to 8.0 kilometres per hour, with 20 finishers.
Results
Ranks 1–50 of 115
| Rank | Runner | Time | Pace | Cat. | Placing |
|---|---|---|---|---|---|
| 1 | Suunto Team Latvija | 6:11:06h | 13.10 | M23 | 1st M · 1st M23 |
| 2 | VSK Noskrien | 6:32:40h | 12.38 | M23 | 2nd M · 2nd M23 |
| 3 | VSK Noskrien Rieksti | 7:15:20h | 11.16 | M23 | 3rd M · 3rd M23 |
| 4 | Saldus OK | 7:18:50h | 11.07 | M23 | 4th M · 4th M23 |
| 5 | VVK | 7:27:45h | 10.85 | M35 | 5th M · 1st M35 |
| 6 | Sportlat | 7:28:09h | 10.85 | M45 | 6th M · 1st M45 |
| 7 | VSK Noskrien/Aizkraukle | 7:35:26h | 10.67 | M50 | 7th M · 1st M50 |
| 8 | Esibrivs.LV | 7:41:49h | 10.52 | M23 | 8th M · 5th M23 |
| 9 | Pabaso.Lv / VSK Noskrien | 7:51:30h | 10.31 | M23 | 9th M · 6th M23 |
| 10 | Talsu Pakalne | 7:51:57h | 10.30 | M55 | 10th M · 1st M55 |
| 11 | SK Metroons, VSK Noskrien | 7:57:20h | 10.18 | M40 | 11th M · 1st M40 |
| 12 | VSK Noskrien | 7:58:43h | 10.15 | M23 | 12th M · 7th M23 |
| 13 | Ozons | 8:05:56h | 10.00 | W23 | 1st F · 1st W23 |
| 14 | Surikati | 8:06:49h | 9.98 | M23 | 13th M · 8th M23 |
| 15 | Vichy | 8:18:08h | 9.76 | M23 | 14th M · 9th M23 |
| 16 | Maratona Klubs/ Möller... | 8:27:43h | 9.57 | W23 | 2nd F · 2nd W23 |
| 17 | VSK Noskrien/LSC | 8:34:17h | 9.45 | M40 | 15th M · 2nd M40 |
| 18 | Gaujiena | 8:36:31h | 9.41 | M40 | 16th M · 3rd M40 |
| 19 | *Tukums | 8:37:14h | 9.40 | M23 | 17th M · 10th M23 |
| 20 | Brīvdomātājs | 8:39:11h | 9.36 | MU23 | 18th M · 1st MU23 |
| 21 | Gugatnis | 8:40:21h | 9.34 | M23 | 19th M · 11th M23 |
| 22 | Maratona Klubs/Sis Lat... | 8:40:21h | 9.34 | M40 | 19th M · 4th M40 |
| 23 | VSK Noskrien/Ņergas | 8:42:12h | 9.31 | M23 | 21st M · 12th M23 |
| 24 | VSK Noskrien | 8:42:13h | 9.31 | W23 | 3rd F · 3rd W23 |
| 25 | *Rīga | 8:44:13h | 9.27 | M23 | 22nd M · 13th M23 |
| 26 | Vetrunge | 8:45:30h | 9.25 | M23 | 23rd M · 14th M23 |
| 27 | Laukinis Trail | 8:50:23h | 9.16 | W35 | 4th F · 1st W35 |
| 28 | VSK Noskrien Rieksti | 8:51:51h | 9.14 | M40 | 24th M · 5th M40 |
| 29 | OK Kurmis | 8:53:35h | 9.11 | M23 | 25th M · 15th M23 |
| 30 | 9:04:03h | 8.93 | M23 | 26th M · 16th M23 | |
| 31 | VSK Noskrien | 9:06:06h | 8.90 | M40 | 27th M · 6th M40 |
| 32 | VSK Noskrien | 9:06:07h | 8.90 | M23 | 28th M · 17th M23 |
| 33 | VSK Noskrien | 9:12:33h | 8.80 | M35 | 29th M · 2nd M35 |
| 34 | 9:13:45h | 8.78 | M50 | 30th M · 2nd M50 | |
| 35 | Patria | 9:14:12h | 8.77 | M23 | 31st M · 18th M23 |
| 36 | Goodlife | 9:17:39h | 8.71 | M23 | 32nd M · 19th M23 |
| 37 | ŽK KTU Ąžuolas | 9:17:39h | 8.71 | M23 | 32nd M · 19th M23 |
| 38 | VSK Noskrien | 9:21:56h | 8.65 | M23 | 34th M · 21st M23 |
| 39 | Pedalki | 9:22:57h | 8.63 | M35 | 35th M · 3rd M35 |
| 40 | Pedalki | 9:22:57h | 8.63 | W35 | 5th F · 2nd W35 |
| 41 | VSK Noskrien Vāveres | 9:23:12h | 8.63 | W23 | 6th F · 4th W23 |
| 42 | NBS | 9:26:56h | 8.57 | M40 | 36th M · 7th M40 |
| 43 | Laukinis Trail | 9:28:11h | 8.55 | M40 | 37th M · 8th M40 |
| 44 | 9:28:18h | 8.55 | M45 | 38th M · 2nd M45 | |
| 45 | Raja | 9:31:34h | 8.50 | M23 | 39th M · 22nd M23 |
| 46 | VSK Noskrien | 9:32:51h | 8.48 | M35 | 40th M · 4th M35 |
| 47 | N.N.LatviaMan | 9:33:41h | 8.47 | M23 | 41st M · 23rd M23 |
| 48 | VSK Noskrien | 9:42:08h | 8.35 | M50 | 42nd M · 3rd M50 |
| 49 | 9:42:08h | 8.35 | M23 | 42nd M · 24th M23 | |
| 50 | VSK Noskrien Vāveres | 9:49:35h | 8.24 | W40 | 7th F · 1st W40 |
- 1Suunto Team Latvija1st M · 1st M23Time6:11:06hPace13.10Cat.M23
- 2VSK Noskrien2nd M · 2nd M23Time6:32:40hPace12.38Cat.M23
- 3VSK Noskrien Rieksti3rd M · 3rd M23Time7:15:20hPace11.16Cat.M23
- 4Saldus OK4th M · 4th M23Time7:18:50hPace11.07Cat.M23
- 5VVK5th M · 1st M35Time7:27:45hPace10.85Cat.M35
- 6Sportlat6th M · 1st M45Time7:28:09hPace10.85Cat.M45
- 7VSK Noskrien/Aizkraukle7th M · 1st M50Time7:35:26hPace10.67Cat.M50
- 8Esibrivs.LV8th M · 5th M23Time7:41:49hPace10.52Cat.M23
- 9Pabaso.Lv / VSK Noskrien9th M · 6th M23Time7:51:30hPace10.31Cat.M23
- 10Talsu Pakalne10th M · 1st M55Time7:51:57hPace10.30Cat.M55
- 11SK Metroons, VSK Noskrien11th M · 1st M40Time7:57:20hPace10.18Cat.M40
- 12VSK Noskrien12th M · 7th M23Time7:58:43hPace10.15Cat.M23
- 13Ozons1st F · 1st W23Time8:05:56hPace10.00Cat.W23
- 14Surikati13th M · 8th M23Time8:06:49hPace9.98Cat.M23
- 15Vichy14th M · 9th M23Time8:18:08hPace9.76Cat.M23
- 16Maratona Klubs/ Möller...2nd F · 2nd W23Time8:27:43hPace9.57Cat.W23
- 17VSK Noskrien/LSC15th M · 2nd M40Time8:34:17hPace9.45Cat.M40
- 18Gaujiena16th M · 3rd M40Time8:36:31hPace9.41Cat.M40
- 19*Tukums17th M · 10th M23Time8:37:14hPace9.40Cat.M23
- 20Brīvdomātājs18th M · 1st MU23Time8:39:11hPace9.36Cat.MU23
- 21Gugatnis19th M · 11th M23Time8:40:21hPace9.34Cat.M23
- 22Maratona Klubs/Sis Lat...19th M · 4th M40Time8:40:21hPace9.34Cat.M40
- 23VSK Noskrien/Ņergas21st M · 12th M23Time8:42:12hPace9.31Cat.M23
- 24VSK Noskrien3rd F · 3rd W23Time8:42:13hPace9.31Cat.W23
- 25*Rīga22nd M · 13th M23Time8:44:13hPace9.27Cat.M23
- 26Vetrunge23rd M · 14th M23Time8:45:30hPace9.25Cat.M23
- 27Laukinis Trail4th F · 1st W35Time8:50:23hPace9.16Cat.W35
- 28VSK Noskrien Rieksti24th M · 5th M40Time8:51:51hPace9.14Cat.M40
- 29OK Kurmis25th M · 15th M23Time8:53:35hPace9.11Cat.M23
- 3026th M · 16th M23Time9:04:03hPace8.93Cat.M23
- 31VSK Noskrien27th M · 6th M40Time9:06:06hPace8.90Cat.M40
- 32VSK Noskrien28th M · 17th M23Time9:06:07hPace8.90Cat.M23
- 33VSK Noskrien29th M · 2nd M35Time9:12:33hPace8.80Cat.M35
- 3430th M · 2nd M50Time9:13:45hPace8.78Cat.M50
- 35Patria31st M · 18th M23Time9:14:12hPace8.77Cat.M23
- 36Goodlife32nd M · 19th M23Time9:17:39hPace8.71Cat.M23
- 37ŽK KTU Ąžuolas32nd M · 19th M23Time9:17:39hPace8.71Cat.M23
- 38VSK Noskrien34th M · 21st M23Time9:21:56hPace8.65Cat.M23
- 39Pedalki35th M · 3rd M35Time9:22:57hPace8.63Cat.M35
- 40Pedalki5th F · 2nd W35Time9:22:57hPace8.63Cat.W35
- 41VSK Noskrien Vāveres6th F · 4th W23Time9:23:12hPace8.63Cat.W23
- 42NBS36th M · 7th M40Time9:26:56hPace8.57Cat.M40
- 43Laukinis Trail37th M · 8th M40Time9:28:11hPace8.55Cat.M40
- 4438th M · 2nd M45Time9:28:18hPace8.55Cat.M45
- 45Raja39th M · 22nd M23Time9:31:34hPace8.50Cat.M23
- 46VSK Noskrien40th M · 4th M35Time9:32:51hPace8.48Cat.M35
- 47N.N.LatviaMan41st M · 23rd M23Time9:33:41hPace8.47Cat.M23
- 48VSK Noskrien42nd M · 3rd M50Time9:42:08hPace8.35Cat.M50
- 4942nd M · 24th M23Time9:42:08hPace8.35Cat.M23
- 50VSK Noskrien Vāveres7th F · 1st W40Time9:49:35hPace8.24Cat.W40
Showing ranks 1–50 of 115